Puvirnituq Airport

CYPX | YPX

Puvirnituq , Quebec , Canada

Thursday, June 4th, 2020 | 20:33

Weather

CYPX 050000Z AUTO 04009KT 9SM FEW075 SCT250 05/02 A2970 RMK SLP061

Charts

No Charts Available

Gates

No Gates Available

Runways

1 Available

Active ATC

Events -Coming Soon-

1 Events Coming Up Soon

Next event:
CYPX Flyout